Time;durP1;ratioP1;P1;durP2;ratioP2;P2;SDS_P1;SDS_P2;PMS_P1;PMS_P2;Temp;Humidity;BMP_temperature;BMP_pressure;BME280_temperature;BME280_humidity;BME280_pressure;Samples;Min_cycle;Max_cycle;Signal;HPM_P1;HPM_P2
2022/01/20 00:02:06;;;;;;;13.83;3.30;;;4.00;99.90;;;;;;5043080;28;20480;-82
2022/01/20 00:04:42;;;;;;;15.13;5.60;;;4.00;99.90;;;;;;5042873;28;20870;-82
2022/01/20 00:07:34;;;;;;;20.53;5.37;;;3.90;99.90;;;;;;5043628;28;20759;-82
2022/01/20 00:26:51;;;;;;;21.73;6.23;;;3.70;99.90;;;;;;5043756;28;20457;-82
2022/01/20 00:29:26;;;;;;;22.00;7.27;;;3.70;99.90;;;;;;5043944;28;20482;-82
2022/01/20 00:35:09;;;;;;;25.33;7.30;;;3.60;99.90;;;;;;5028612;28;20441;-82
2022/01/20 00:37:34;;;;;;;23.57;7.53;;;3.70;99.90;;;;;;5024268;28;20463;-82
2022/01/20 00:40:04;;;;;;;21.20;5.80;;;3.70;99.90;;;;;;5031724;28;20452;-82
2022/01/20 00:42:31;;;;;;;21.47;7.10;;;3.70;99.90;;;;;;5042012;28;20548;-79
2022/01/20 00:44:58;;;;;;;22.40;5.77;;;3.70;99.90;;;;;;5041768;28;20497;-81
2022/01/20 00:47:25;;;;;;;24.87;6.57;;;3.70;99.90;;;;;;5042130;28;20476;-82
2022/01/20 00:49:52;;;;;;;19.13;7.60;;;3.80;99.90;;;;;;5043003;28;20487;-82
2022/01/20 00:52:18;;;;;;;28.13;8.70;;;3.90;99.90;;;;;;5042444;28;20484;-82
2022/01/20 00:54:45;;;;;;;14.97;7.23;;;4.00;99.90;;;;;;5042223;28;20476;-82
2022/01/20 00:57:14;;;;;;;37.37;7.90;;;4.10;99.90;;;;;;5042737;28;20451;-82
2022/01/20 00:59:41;;;;;;;23.90;7.13;;;4.10;99.90;;;;;;5042444;28;20448;-82
2022/01/20 01:02:09;;;;;;;26.23;8.83;;;4.10;99.90;;;;;;5043040;28;20528;-81
2022/01/20 01:04:37;;;;;;;20.17;6.50;;;4.20;99.90;;;;;;5042910;28;20484;-81
2022/01/20 01:07:25;;;;;;;23.93;7.20;;;4.20;99.90;;;;;;5042869;28;20462;-82
2022/01/20 01:09:52;;;;;;;29.10;8.00;;;4.30;99.90;;;;;;5042361;28;20493;-82
2022/01/20 01:12:30;;;;;;;21.53;7.73;;;4.40;99.90;;;;;;5044754;28;20450;-82
2022/01/20 01:14:57;;;;;;;29.10;9.00;;;4.40;99.90;;;;;;5043458;28;20480;-82
2022/01/20 01:20:19;;;;;;;30.80;7.10;;;4.50;99.90;;;;;;5044105;28;20448;-82
2022/01/20 01:22:46;;;;;;;25.00;6.67;;;4.50;99.90;;;;;;5025430;28;20960;-82
2022/01/20 01:25:14;;;;;;;32.77;6.83;;;4.60;99.90;;;;;;5025142;28;20520;-82
2022/01/20 01:27:44;;;;;;;26.27;8.33;;;4.60;99.90;;;;;;5025558;28;20566;-81
2022/01/20 01:32:56;;;;;;;29.23;9.00;;;4.60;99.90;;;;;;5021861;28;20438;-82
2022/01/20 01:35:26;;;;;;;27.80;7.30;;;4.70;99.90;;;;;;5038709;28;20855;-81
2022/01/20 01:40:41;;;;;;;26.60;7.50;;;4.70;99.90;;;;;;5044553;28;21095;-82
2022/01/20 01:43:25;;;;;;;24.30;5.63;;;4.70;99.90;;;;;;5044930;28;20483;-80
2022/01/20 01:45:52;;;;;;;25.43;7.03;;;4.70;99.90;;;;;;5043326;28;20474;-82
2022/01/20 01:48:19;;;;;;;28.20;7.33;;;4.70;99.90;;;;;;5042571;28;20450;-81
2022/01/20 01:50:46;;;;;;;35.10;6.17;;;4.60;99.90;;;;;;5043508;28;20441;-81
2022/01/20 01:53:14;;;;;;;22.50;5.20;;;4.60;99.90;;;;;;5042930;28;20449;-82
2022/01/20 01:55:41;;;;;;;18.33;5.27;;;4.60;99.90;;;;;;5042866;28;20481;-81
2022/01/20 01:58:10;;;;;;;37.57;6.30;;;4.60;99.90;;;;;;5042932;28;20483;-80
2022/01/20 02:00:36;;;;;;;19.63;4.40;;;4.60;99.90;;;;;;5042271;28;20900;-82
2022/01/20 02:03:04;;;;;;;24.80;5.77;;;4.60;99.90;;;;;;5042898;28;20499;-81
2022/01/20 02:05:32;;;;;;;28.37;5.20;;;4.60;99.90;;;;;;5042238;28;20843;-81
2022/01/20 02:19:08;;;;;;;23.77;4.60;;;4.30;99.90;;;;;;5041483;28;20515;-81
2022/01/20 02:21:49;;;;;;;18.03;3.67;;;4.30;99.90;;;;;;5044843;28;20478;-82
2022/01/20 02:24:16;;;;;;;15.57;5.03;;;4.20;99.90;;;;;;5051225;28;20484;-81
2022/01/20 02:26:44;;;;;;;18.17;4.20;;;4.10;99.90;;;;;;5050684;28;20501;-82
2022/01/20 02:29:11;;;;;;;17.37;3.33;;;4.10;99.90;;;;;;5046976;28;20548;-82
2022/01/20 02:31:39;;;;;;;19.70;3.63;;;4.10;99.90;;;;;;5044318;28;20836;-81
2022/01/20 02:34:09;;;;;;;26.17;4.33;;;4.20;99.90;;;;;;5043053;28;20458;-82
2022/01/20 02:36:37;;;;;;;15.67;3.90;;;4.30;99.90;;;;;;5040186;28;20481;-81
2022/01/20 02:39:12;;;;;;;19.00;3.90;;;4.40;99.90;;;;;;5042443;28;20463;-82
2022/01/20 02:47:12;;;;;;;14.40;3.53;;;4.40;99.90;;;;;;5042499;28;20427;-82
2022/01/20 02:49:39;;;;;;;17.93;3.87;;;4.40;99.90;;;;;;5042224;28;20461;-81
2022/01/20 02:52:07;;;;;;;20.43;4.20;;;4.40;99.90;;;;;;5041611;28;20456;-82
2022/01/20 02:54:36;;;;;;;14.90;3.33;;;4.40;99.90;;;;;;5042171;28;20461;-82
2022/01/20 02:57:04;;;;;;;18.03;4.23;;;4.40;99.90;;;;;;5042170;28;20475;-82
2022/01/20 02:59:32;;;;;;;15.40;3.77;;;4.40;99.90;;;;;;5042638;28;20942;-82
2022/01/20 03:01:59;;;;;;;9.87;4.43;;;4.50;99.90;;;;;;5045165;28;20490;-81
2022/01/20 03:04:26;;;;;;;12.73;3.67;;;4.50;99.90;;;;;;5046808;28;20466;-81
2022/01/20 03:06:53;;;;;;;12.27;3.80;;;4.60;99.90;;;;;;5031606;28;20866;-81
2022/01/20 03:09:20;;;;;;;13.40;5.03;;;4.60;99.90;;;;;;5034089;28;20492;-81
2022/01/20 03:11:50;;;;;;;22.80;4.47;;;4.60;99.90;;;;;;5045408;28;20490;-81
2022/01/20 03:14:17;;;;;;;14.13;4.13;;;4.70;99.90;;;;;;5045224;28;20491;-81
2022/01/20 03:16:44;;;;;;;18.73;4.47;;;4.70;99.90;;;;;;5046253;28;20478;-81
2022/01/20 03:19:11;;;;;;;13.27;3.60;;;4.70;99.90;;;;;;5047031;28;20483;-81
2022/01/20 03:21:38;;;;;;;11.20;3.10;;;4.80;99.90;;;;;;5046101;28;20495;-81
2022/01/20 03:24:05;;;;;;;19.37;4.63;;;4.70;99.90;;;;;;5044588;28;20453;-81
2022/01/20 03:26:32;;;;;;;13.53;3.87;;;4.70;99.90;;;;;;5046107;28;20498;-82
2022/01/20 03:29:01;;;;;;;11.00;3.47;;;4.70;99.90;;;;;;5048201;28;20484;-81
2022/01/20 03:31:30;;;;;;;18.93;5.03;;;4.60;99.90;;;;;;5047733;28;20469;-80
2022/01/20 03:33:57;;;;;;;12.60;2.97;;;4.50;99.90;;;;;;5042073;28;20867;-81
2022/01/20 03:36:24;;;;;;;12.90;2.63;;;4.40;99.90;;;;;;5047043;28;20490;-81
2022/01/20 03:38:51;;;;;;;18.37;3.97;;;4.30;99.90;;;;;;5045751;28;20453;-81
2022/01/20 03:41:19;;;;;;;16.83;3.33;;;4.20;99.90;;;;;;5046287;28;20513;-81
2022/01/20 03:43:47;;;;;;;13.30;3.10;;;4.10;99.90;;;;;;5043979;28;20540;-81
2022/01/20 03:46:16;;;;;;;17.17;3.60;;;4.20;99.90;;;;;;5044799;28;20524;-82
2022/01/20 03:48:50;;;;;;;10.83;2.90;;;4.20;99.90;;;;;;5045368;28;20460;-82
2022/01/20 03:51:21;;;;;;;13.60;3.27;;;4.10;99.90;;;;;;5044728;28;20481;-82
2022/01/20 03:53:50;;;;;;;16.17;4.77;;;4.10;99.90;;;;;;5045276;28;20445;-82
2022/01/20 03:56:18;;;;;;;8.20;2.00;;;4.20;99.90;;;;;;5044849;28;20537;-82
2022/01/20 03:58:45;;;;;;;8.33;2.77;;;4.20;99.90;;;;;;5044503;28;20491;-82
2022/01/20 04:01:14;;;;;;;11.27;3.83;;;4.20;99.90;;;;;;5042855;28;20483;-82
2022/01/20 04:03:43;;;;;;;16.53;3.50;;;4.10;99.90;;;;;;5037990;28;20471;-80
2022/01/20 04:06:10;;;;;;;20.30;4.13;;;4.10;99.90;;;;;;5045164;28;20519;-81
2022/01/20 04:08:39;;;;;;;13.77;2.80;;;4.10;99.90;;;;;;5045598;28;20473;-81
2022/01/20 04:11:07;;;;;;;16.27;3.73;;;4.10;99.90;;;;;;5045034;28;20452;-81
2022/01/20 04:13:35;;;;;;;16.57;2.87;;;4.10;99.90;;;;;;5042582;28;20522;-82
2022/01/20 04:16:11;;;;;;;11.30;3.60;;;4.20;99.90;;;;;;5042101;28;20476;-82
2022/01/20 04:18:38;;;;;;;13.37;3.27;;;4.30;99.90;;;;;;5044136;28;20460;-81
2022/01/20 04:21:06;;;;;;;14.67;2.97;;;4.30;99.90;;;;;;5043738;28;20483;-82
2022/01/20 04:23:33;;;;;;;18.10;2.70;;;4.40;99.90;;;;;;5044747;28;20454;-82
2022/01/20 04:26:00;;;;;;;13.87;2.83;;;4.40;99.90;;;;;;5044201;28;20509;-82
2022/01/20 04:28:27;;;;;;;19.73;4.40;;;4.50;99.90;;;;;;5044851;28;20451;-82
2022/01/20 04:30:54;;;;;;;19.47;4.40;;;4.40;99.90;;;;;;5037969;28;20551;-82
2022/01/20 04:33:20;;;;;;;13.40;3.67;;;4.30;99.90;;;;;;5044626;28;20515;-82
2022/01/20 04:35:47;;;;;;;17.63;3.80;;;4.30;99.90;;;;;;5041328;28;20504;-82
2022/01/20 04:38:16;;;;;;;17.87;3.23;;;4.30;99.90;;;;;;5051377;28;20441;-81
2022/01/20 04:40:43;;;;;;;12.17;3.23;;;4.30;99.90;;;;;;5043631;28;20493;-81
2022/01/20 04:43:10;;;;;;;17.80;4.23;;;4.40;99.90;;;;;;5043432;28;20927;-81
2022/01/20 04:45:43;;;;;;;20.83;3.90;;;4.40;99.90;;;;;;5045817;28;20888;-82
2022/01/20 04:48:23;;;;;;;16.73;3.30;;;4.40;99.90;;;;;;5046185;28;20485;-81
2022/01/20 04:59:04;;;;;;;11.23;4.50;;;4.60;99.90;;;;;;5046944;28;20481;-81
2022/01/20 05:01:32;;;;;;;14.83;3.17;;;4.60;99.90;;;;;;5044522;28;20461;-81
2022/01/20 05:04:01;;;;;;;14.60;4.97;;;4.60;99.90;;;;;;5045379;28;20450;-81
2022/01/20 05:06:28;;;;;;;19.90;3.70;;;4.60;99.90;;;;;;5099233;22;20509;-85
2022/01/20 05:08:56;;;;;;;13.27;3.07;;;4.70;99.90;;;;;;5098989;28;20533;-84
2022/01/20 05:11:23;;;;;;;11.20;2.70;;;4.70;99.90;;;;;;5102980;28;20481;-86
2022/01/20 05:13:50;;;;;;;13.53;3.87;;;4.70;99.90;;;;;;5099040;28;20523;-85
2022/01/20 05:16:16;;;;;;;11.70;2.87;;;4.70;99.90;;;;;;5096535;28;20557;-84
2022/01/20 05:18:43;;;;;;;12.67;3.90;;;4.60;99.90;;;;;;5094927;28;21029;-83
2022/01/20 05:21:10;;;;;;;11.80;4.20;;;4.60;99.90;;;;;;5097436;28;20461;-83
2022/01/20 05:23:37;;;;;;;9.33;3.40;;;4.50;99.90;;;;;;5096939;28;20557;-83
2022/01/20 05:26:05;;;;;;;8.13;3.10;;;4.60;99.90;;;;;;5098610;28;20470;-80
2022/01/20 05:28:33;;;;;;;10.43;4.80;;;4.60;99.90;;;;;;5101829;28;20624;-80
2022/01/20 05:31:03;;;;;;;12.33;4.20;;;4.60;99.90;;;;;;5101695;28;20453;-80
2022/01/20 05:33:30;;;;;;;11.90;2.77;;;4.50;99.90;;;;;;5103455;28;20456;-79
2022/01/20 05:35:57;;;;;;;9.07;2.97;;;4.60;99.90;;;;;;5104415;28;20531;-80
2022/01/20 05:38:24;;;;;;;9.80;2.60;;;4.50;99.90;;;;;;5103994;28;20525;-80
2022/01/20 05:40:51;;;;;;;9.23;3.23;;;4.50;99.90;;;;;;5105851;28;20456;-80
2022/01/20 05:43:19;;;;;;;9.50;2.37;;;4.50;99.90;;;;;;5107924;28;20590;-79
2022/01/20 05:45:46;;;;;;;10.93;3.20;;;4.50;99.90;;;;;;5094022;28;20510;-79
2022/01/20 05:48:15;;;;;;;8.37;2.40;;;4.60;99.90;;;;;;5100710;28;20466;-80
2022/01/20 05:50:43;;;;;;;9.30;2.60;;;4.60;99.90;;;;;;5104733;28;20451;-79
2022/01/20 05:53:10;;;;;;;14.07;2.47;;;4.40;99.90;;;;;;5103630;28;20467;-80
2022/01/20 05:55:38;;;;;;;8.93;3.10;;;4.40;99.90;;;;;;5103063;28;20500;-81
2022/01/20 05:58:07;;;;;;;7.10;3.20;;;4.30;99.90;;;;;;5103348;28;20955;-80
2022/01/20 06:00:37;;;;;;;5.70;2.90;;;4.30;99.90;;;;;;5103006;28;20482;-80
2022/01/20 06:05:49;;;;;;;13.40;3.00;;;4.30;99.90;;;;;;5093113;28;20498;-80
2022/01/20 06:08:16;;;;;;;11.50;3.20;;;4.30;99.90;;;;;;5087120;28;20482;-80
2022/01/20 06:10:43;;;;;;;11.80;2.90;;;4.30;99.90;;;;;;5105055;28;20992;-79
2022/01/20 06:13:10;;;;;;;10.20;2.93;;;4.20;99.90;;;;;;5104285;28;20483;-79
2022/01/20 06:15:39;;;;;;;8.40;2.00;;;4.10;99.90;;;;;;5096134;28;20596;-80
2022/01/20 06:18:06;;;;;;;6.77;2.63;;;3.90;99.90;;;;;;5084722;28;20478;-80
2022/01/20 06:20:34;;;;;;;5.90;2.10;;;3.90;99.90;;;;;;5104007;28;20878;-79
2022/01/20 06:23:01;;;;;;;12.00;1.70;;;3.80;99.90;;;;;;5096878;28;20523;-79
2022/01/20 06:25:28;;;;;;;8.67;2.23;;;3.70;99.90;;;;;;5099281;28;20505;-79
2022/01/20 06:27:55;;;;;;;8.03;2.60;;;3.70;99.90;;;;;;5100633;28;20537;-80
2022/01/20 06:30:24;;;;;;;7.43;2.50;;;3.70;99.90;;;;;;5099038;28;20482;-81
2022/01/20 06:32:52;;;;;;;9.87;2.77;;;3.70;99.90;;;;;;5102341;28;20450;-80
2022/01/20 06:35:19;;;;;;;9.07;1.83;;;3.80;99.90;;;;;;5102293;28;20486;-80
2022/01/20 06:37:46;;;;;;;8.80;1.90;;;3.90;99.90;;;;;;5094641;28;20531;-80
2022/01/20 06:40:14;;;;;;;10.60;2.37;;;3.90;99.90;;;;;;5102347;28;20490;-79
2022/01/20 06:42:41;;;;;;;10.10;2.33;;;4.00;99.90;;;;;;5103983;28;20512;-80
2022/01/20 06:45:11;;;;;;;9.63;2.03;;;4.00;99.90;;;;;;5102797;28;20489;-80
2022/01/20 06:47:38;;;;;;;10.40;2.90;;;4.00;99.90;;;;;;5100811;28;20896;-78
2022/01/20 06:50:10;;;;;;;9.23;2.67;;;4.00;99.90;;;;;;5095996;28;20485;-80
2022/01/20 06:52:37;;;;;;;9.23;1.80;;;3.90;99.90;;;;;;5094697;28;20541;-80
2022/01/20 06:55:07;;;;;;;6.53;1.40;;;3.90;99.90;;;;;;5093566;28;20457;-80
2022/01/20 06:57:34;;;;;;;11.03;2.23;;;3.90;99.90;;;;;;5094836;28;20880;-80
2022/01/20 07:00:00;;;;;;;11.20;2.10;;;3.90;99.90;;;;;;5093937;28;20486;-80
2022/01/20 07:02:27;;;;;;;9.00;1.60;;;3.90;99.90;;;;;;5093501;28;20545;-80
2022/01/20 07:04:54;;;;;;;7.73;1.57;;;3.90;99.90;;;;;;5092027;28;20442;-80
2022/01/20 07:07:23;;;;;;;15.73;2.87;;;4.00;99.90;;;;;;5087470;28;20577;-81
2022/01/20 07:09:49;;;;;;;6.53;1.77;;;3.90;99.90;;;;;;5094438;28;20895;-79
2022/01/20 07:12:16;;;;;;;14.00;2.27;;;3.90;99.90;;;;;;5093870;28;20546;-81
2022/01/20 07:14:43;;;;;;;11.17;2.70;;;3.90;99.90;;;;;;5087841;28;20486;-81
2022/01/20 07:17:10;;;;;;;15.43;1.70;;;3.80;99.90;;;;;;5094114;28;20512;-81
2022/01/20 07:19:37;;;;;;;14.90;2.50;;;3.80;99.90;;;;;;5094697;28;20538;-81
2022/01/20 07:22:04;;;;;;;30.07;4.37;;;3.80;99.90;;;;;;5094271;28;20533;-81
2022/01/20 07:24:33;;;;;;;7.17;1.70;;;3.80;99.90;;;;;;5089119;28;20458;-80
2022/01/20 07:27:00;;;;;;;10.40;3.13;;;3.80;99.90;;;;;;5087002;28;20504;-81
2022/01/20 07:29:27;;;;;;;14.67;3.30;;;3.70;99.90;;;;;;5093026;28;20546;-81
2022/01/20 07:31:55;;;;;;;9.20;2.77;;;3.70;99.90;;;;;;5095367;28;20517;-84
2022/01/20 07:34:21;;;;;;;9.83;2.30;;;3.70;99.90;;;;;;5096394;28;20442;-82
2022/01/20 07:36:48;;;;;;;9.27;2.53;;;3.60;99.90;;;;;;5096814;28;20876;-82
2022/01/20 07:39:15;;;;;;;8.90;2.60;;;3.50;99.90;;;;;;5097388;28;20869;-81
2022/01/20 07:41:44;;;;;;;11.77;2.10;;;3.40;99.90;;;;;;5099462;28;20528;-82
2022/01/20 07:44:10;;;;;;;7.77;2.20;;;3.30;99.90;;;;;;5092965;28;20483;-80
2022/01/20 07:46:37;;;;;;;9.70;2.23;;;3.20;99.90;;;;;;5091708;28;20585;-80
2022/01/20 07:49:04;;;;;;;10.13;2.50;;;3.10;99.90;;;;;;5092490;28;20480;-81
2022/01/20 07:51:31;;;;;;;13.33;2.40;;;3.10;99.90;;;;;;5098737;28;20894;-79
2022/01/20 07:53:58;;;;;;;12.97;2.97;;;3.10;99.90;;;;;;5098969;28;20521;-80
2022/01/20 07:56:25;;;;;;;8.10;2.20;;;3.10;99.90;;;;;;5095174;28;20564;-81
2022/01/20 07:58:53;;;;;;;10.17;2.10;;;3.10;99.90;;;;;;5098650;28;20537;-81
2022/01/20 08:01:24;;;;;;;9.50;2.20;;;3.10;99.90;;;;;;5099554;28;20445;-80
2022/01/20 08:03:51;;;;;;;16.73;2.93;;;3.10;99.90;;;;;;5089237;28;20489;-81
2022/01/20 08:06:18;;;;;;;12.53;2.70;;;3.10;99.90;;;;;;5094546;28;20593;-80
2022/01/20 08:08:46;;;;;;;9.20;2.70;;;3.10;99.90;;;;;;5091861;28;20833;-81
2022/01/20 08:11:13;;;;;;;10.63;2.20;;;3.00;99.90;;;;;;5091079;28;20458;-81
2022/01/20 08:13:40;;;;;;;6.47;2.80;;;3.00;99.90;;;;;;5089745;28;20954;-80
2022/01/20 08:16:09;;;;;;;10.43;2.50;;;2.90;99.90;;;;;;5087027;28;20555;-81
2022/01/20 08:18:35;;;;;;;8.77;2.30;;;2.90;99.90;;;;;;5094009;28;20476;-80
2022/01/20 08:21:02;;;;;;;7.73;1.73;;;2.90;99.90;;;;;;5092094;28;20513;-81
2022/01/20 08:23:29;;;;;;;9.67;2.50;;;2.90;99.90;;;;;;5089214;28;20541;-81
2022/01/20 08:25:56;;;;;;;14.07;2.43;;;3.00;99.90;;;;;;5091454;28;20542;-81
2022/01/20 08:28:23;;;;;;;8.83;2.13;;;3.20;99.90;;;;;;5094249;28;20446;-81
2022/01/20 08:30:51;;;;;;;8.50;3.63;;;3.50;99.90;;;;;;5088621;28;20455;-81
2022/01/20 08:33:19;;;;;;;6.47;2.10;;;3.80;99.90;;;;;;5095791;28;20534;-80
2022/01/20 08:35:46;;;;;;;10.33;2.67;;;4.00;99.90;;;;;;5098030;28;20579;-81
2022/01/20 08:38:13;;;;;;;13.80;2.33;;;4.10;99.90;;;;;;5099354;28;20482;-81
2022/01/20 08:40:40;;;;;;;8.17;2.20;;;4.20;99.90;;;;;;5098532;28;20485;-78
2022/01/20 08:43:07;;;;;;;10.77;2.23;;;4.20;99.90;;;;;;5097371;28;20582;-80
2022/01/20 08:45:36;;;;;;;6.23;2.30;;;4.30;99.90;;;;;;5090309;28;20469;-80
2022/01/20 08:48:04;;;;;;;11.13;2.00;;;4.40;99.90;;;;;;5096398;28;20450;-80
2022/01/20 08:50:33;;;;;;;8.47;2.43;;;4.40;99.90;;;;;;5099022;28;20493;-80
2022/01/20 08:53:00;;;;;;;13.30;2.70;;;4.60;99.90;;;;;;5098022;28;20474;-81
2022/01/20 08:55:28;;;;;;;5.90;2.17;;;4.70;99.90;;;;;;5091472;28;20508;-81
2022/01/20 08:57:55;;;;;;;6.90;1.80;;;4.80;99.90;;;;;;5080973;28;20451;-81
2022/01/20 09:00:23;;;;;;;8.57;2.43;;;4.80;99.90;;;;;;5098505;28;20492;-82
2022/01/20 09:02:50;;;;;;;8.43;2.67;;;4.70;99.90;;;;;;5099090;28;20541;-81
2022/01/20 09:05:17;;;;;;;7.93;2.23;;;4.70;99.90;;;;;;5095542;28;21078;-81
2022/01/20 09:07:45;;;;;;;8.77;2.20;;;4.70;99.90;;;;;;5078294;28;20523;-80
2022/01/20 09:10:18;;;;;;;8.17;1.80;;;4.70;99.90;;;;;;5091360;28;20857;-80
2022/01/20 09:15:31;;;;;;;10.13;2.27;;;4.80;99.90;;;;;;5097300;28;21030;-80
2022/01/20 09:18:01;;;;;;;9.97;2.27;;;4.50;99.90;;;;;;5097940;28;20458;-81
2022/01/20 09:20:29;;;;;;;13.80;2.00;;;4.40;99.90;;;;;;5098843;28;20882;-79
2022/01/20 09:22:58;;;;;;;12.07;2.40;;;4.50;99.90;;;;;;5097685;28;20541;-81
2022/01/20 09:25:26;;;;;;;8.83;2.10;;;4.60;99.90;;;;;;5094964;28;20998;-80
2022/01/20 09:27:55;;;;;;;11.27;2.63;;;4.80;99.90;;;;;;5081204;28;20513;-80
2022/01/20 09:30:23;;;;;;;10.40;3.40;;;5.00;99.90;;;;;;5097814;28;20450;-81
2022/01/20 09:32:59;;;;;;;7.60;2.17;;;5.10;99.90;;;;;;5098147;28;20467;-80
2022/01/20 09:35:32;;;;;;;6.97;1.77;;;5.40;99.90;;;;;;5090098;28;20557;-81
2022/01/20 09:38:02;;;;;;;7.90;2.27;;;5.50;99.90;;;;;;5080310;28;20942;-82
2022/01/20 09:40:31;;;;;;;8.27;2.57;;;5.60;99.90;;;;;;5090036;28;20548;-78
2022/01/20 09:42:58;;;;;;;14.47;2.10;;;5.40;99.90;;;;;;5095446;28;21027;-80
2022/01/20 09:45:25;;;;;;;7.77;1.70;;;5.50;99.90;;;;;;5090161;28;20583;-81
2022/01/20 09:47:52;;;;;;;6.73;1.90;;;5.50;99.90;;;;;;5087992;28;20479;-78
2022/01/20 09:50:21;;;;;;;8.80;3.20;;;5.60;99.90;;;;;;5091482;28;20455;-81
2022/01/20 09:52:49;;;;;;;11.17;2.10;;;5.70;99.90;;;;;;5087860;28;20480;-80
2022/01/20 09:55:18;;;;;;;12.57;2.90;;;5.80;99.90;;;;;;5090241;28;20542;-81
2022/01/20 09:57:45;;;;;;;8.50;2.17;;;5.70;99.90;;;;;;5091073;28;20455;-81
2022/01/20 10:00:15;;;;;;;6.73;1.60;;;5.40;99.90;;;;;;5092781;28;20483;-80
2022/01/20 10:03:09;;;;;;;7.43;2.60;;;5.40;99.90;;;;;;5087708;28;20501;-81
2022/01/20 10:05:39;;;;;;;7.53;2.07;;;5.50;99.90;;;;;;5074144;28;20521;-80
2022/01/20 10:08:08;;;;;;;8.23;1.77;;;5.50;99.90;;;;;;5086729;28;21026;-79
2022/01/20 10:10:43;;;;;;;13.80;3.03;;;5.60;99.90;;;;;;5085472;28;20437;-79
2022/01/20 10:13:11;;;;;;;6.90;2.00;;;5.70;99.90;;;;;;5087166;28;20534;-78
2022/01/20 10:15:39;;;;;;;7.90;3.20;;;5.70;99.90;;;;;;5082507;28;20559;-80
2022/01/20 10:18:08;;;;;;;8.10;2.10;;;5.80;99.90;;;;;;5088990;28;20459;-82
2022/01/20 10:20:35;;;;;;;8.60;2.03;;;5.80;99.90;;;;;;5081216;28;21034;-78
2022/01/20 10:23:02;;;;;;;9.97;2.77;;;5.90;99.90;;;;;;5090358;28;20886;-79
2022/01/20 10:25:35;;;;;;;8.37;2.50;;;5.90;99.90;;;;;;5090778;28;20507;-79
2022/01/20 10:28:04;;;;;;;8.00;2.50;;;5.80;99.90;;;;;;5087978;28;20454;-79
2022/01/20 10:30:33;;;;;;;13.83;2.80;;;5.90;99.90;;;;;;5089969;28;20553;-80
2022/01/20 10:33:01;;;;;;;10.27;2.80;;;5.90;99.90;;;;;;5081910;28;21230;-78
2022/01/20 10:35:32;;;;;;;12.13;2.10;;;6.00;99.90;;;;;;5090286;28;20486;-80
2022/01/20 10:38:02;;;;;;;10.83;4.00;;;6.20;99.90;;;;;;5091113;28;20453;-78
2022/01/20 10:40:29;;;;;;;8.83;2.33;;;6.00;99.90;;;;;;5092038;28;20464;-78
2022/01/20 10:42:56;;;;;;;10.30;2.33;;;6.10;99.90;;;;;;5090316;28;20530;-81
2022/01/20 10:45:26;;;;;;;5.63;2.03;;;6.20;99.90;;;;;;5073780;28;20501;-81
2022/01/20 10:47:55;;;;;;;14.23;2.20;;;6.30;99.90;;;;;;5078557;28;20478;-81
2022/01/20 10:50:24;;;;;;;7.23;1.90;;;6.40;99.90;;;;;;5097433;28;20480;-79
2022/01/20 10:52:52;;;;;;;9.40;2.40;;;6.40;99.90;;;;;;5097081;28;20492;-79
2022/01/20 10:55:24;;;;;;;9.33;2.47;;;6.20;99.90;;;;;;5092979;28;20475;-80
2022/01/20 10:57:52;;;;;;;11.13;2.27;;;6.30;99.90;;;;;;5098047;28;20478;-79
2022/01/20 11:00:21;;;;;;;9.87;2.20;;;6.30;99.90;;;;;;5092414;28;20461;-79
2022/01/20 11:02:56;;;;;;;11.43;2.50;;;6.80;99.90;;;;;;5087163;28;20524;-80
2022/01/20 11:05:24;;;;;;;12.67;3.60;;;7.10;99.90;;;;;;5094529;28;20512;-80
2022/01/20 11:07:51;;;;;;;15.87;2.80;;;7.30;99.90;;;;;;5084413;22;20593;-81
2022/01/20 11:10:19;;;;;;;7.30;2.00;;;7.20;99.90;;;;;;5054817;28;20970;-80
2022/01/20 11:12:47;;;;;;;6.63;2.40;;;7.30;99.90;;;;;;5061138;28;20478;-78
2022/01/20 11:15:16;;;;;;;10.73;2.00;;;7.20;99.90;;;;;;5053439;28;20483;-78
2022/01/20 11:17:44;;;;;;;6.27;2.43;;;7.30;99.90;;;;;;5056442;28;20467;-81
2022/01/20 11:20:16;;;;;;;9.90;2.67;;;7.10;99.90;;;;;;5062594;28;20477;-82
2022/01/20 11:22:52;;;;;;;8.13;2.33;;;7.20;99.90;;;;;;5062277;28;20485;-81
2022/01/20 11:25:21;;;;;;;14.50;2.80;;;7.10;99.90;;;;;;5061835;28;20490;-82
2022/01/20 11:27:51;;;;;;;6.70;2.10;;;6.90;99.90;;;;;;5067348;28;20456;-83
2022/01/20 11:30:21;;;;;;;7.63;2.20;;;7.00;99.90;;;;;;5065700;28;20593;-81
2022/01/20 11:32:59;;;;;;;7.43;2.13;;;6.80;99.90;;;;;;5054561;28;20459;-81
2022/01/20 11:35:42;;;;;;;7.13;1.70;;;7.50;99.90;;;;;;5053745;28;20539;-81
2022/01/20 11:38:11;;;;;;;7.83;2.10;;;9.20;99.90;;;;;;5044642;28;20496;-82
2022/01/20 11:40:51;;;;;;;5.87;2.20;;;10.50;99.90;;;;;;5056660;28;20454;-82
2022/01/20 11:43:18;;;;;;;8.97;2.53;;;11.80;99.90;;;;;;5063723;28;20452;-81
2022/01/20 11:45:50;;;;;;;11.20;2.50;;;11.00;99.90;;;;;;5064152;28;20531;-81
2022/01/20 11:48:20;;;;;;;7.70;1.83;;;9.80;99.90;;;;;;5064316;28;20481;-82
2022/01/20 11:51:02;;;;;;;5.83;1.70;;;9.20;99.90;;;;;;5065567;28;20449;-82
2022/01/20 11:53:29;;;;;;;8.17;2.10;;;8.80;99.90;;;;;;5064239;28;20475;-81
2022/01/20 11:55:56;;;;;;;12.87;1.93;;;7.90;99.90;;;;;;5064323;28;20456;-82
2022/01/20 11:58:25;;;;;;;12.10;2.40;;;7.40;99.90;;;;;;5064499;28;20487;-82
2022/01/20 12:01:01;;;;;;;6.67;2.17;;;6.90;99.90;;;;;;5063958;28;20466;-82
2022/01/20 12:03:29;;;;;;;16.10;2.47;;;6.80;99.90;;;;;;5063057;28;20482;-83
2022/01/20 12:06:02;;;;;;;9.40;2.43;;;6.80;99.90;;;;;;5065274;28;20548;-82
2022/01/20 12:08:29;;;;;;;12.07;3.80;;;6.60;99.90;;;;;;5064235;28;20462;-81
2022/01/20 12:11:01;;;;;;;169.30;63.53;;;6.30;99.90;;;;;;5064365;28;20515;-82
2022/01/20 12:13:28;;;;;;;16.23;8.63;;;6.20;99.90;;;;;;5063541;28;20858;-80
2022/01/20 12:15:58;;;;;;;15.40;2.77;;;6.10;99.90;;;;;;5062152;28;20481;-80
2022/01/20 12:18:26;;;;;;;8.93;2.67;;;6.20;99.90;;;;;;5063425;28;20539;-81
2022/01/20 12:20:53;;;;;;;8.60;2.20;;;6.20;99.90;;;;;;5062190;28;20489;-80
2022/01/20 12:23:24;;;;;;;11.83;2.30;;;6.30;99.90;;;;;;5061162;28;20839;-80
2022/01/20 12:25:51;;;;;;;8.73;2.30;;;7.30;99.90;;;;;;5063954;28;20869;-81
2022/01/20 12:28:19;;;;;;;7.47;2.60;;;8.70;99.90;;;;;;5064007;28;20480;-81
2022/01/20 12:30:48;;;;;;;17.07;2.93;;;9.00;99.90;;;;;;5062870;28;20448;-81
2022/01/20 12:33:17;;;;;;;10.00;2.53;;;8.60;99.90;;;;;;5062463;28;21025;-81
2022/01/20 12:35:46;;;;;;;13.17;3.10;;;8.40;99.90;;;;;;5063018;28;20490;-81
2022/01/20 12:38:19;;;;;;;10.17;1.93;;;7.90;99.90;;;;;;5063381;28;20567;-81
2022/01/20 12:40:58;;;;;;;9.43;2.53;;;7.60;99.90;;;;;;5063004;28;20467;-80
2022/01/20 12:43:35;;;;;;;5.80;2.57;;;7.40;99.90;;;;;;5062532;28;20558;-81
2022/01/20 12:46:02;;;;;;;7.10;2.23;;;7.40;99.90;;;;;;5064329;28;20486;-82
2022/01/20 12:48:29;;;;;;;10.10;2.23;;;7.20;99.90;;;;;;5063537;28;20954;-80
2022/01/20 12:51:01;;;;;;;13.07;3.07;;;7.10;99.90;;;;;;5062924;28;20555;-82
2022/01/20 12:53:40;;;;;;;12.13;2.40;;;6.80;99.90;;;;;;5063520;28;20459;-80
2022/01/20 12:56:10;;;;;;;9.40;2.30;;;6.90;99.90;;;;;;5063323;28;20530;-81
2022/01/20 12:58:50;;;;;;;7.70;2.53;;;6.70;99.90;;;;;;5063396;28;20519;-81
2022/01/20 13:01:18;;;;;;;12.80;1.90;;;6.70;99.90;;;;;;5063575;28;20471;-82
2022/01/20 13:03:45;;;;;;;14.27;3.30;;;7.20;99.90;;;;;;5053444;28;20503;-82
2022/01/20 13:06:22;;;;;;;6.70;2.00;;;7.60;99.90;;;;;;5043912;28;20538;-80
2022/01/20 13:09:01;;;;;;;8.73;2.43;;;7.90;99.90;;;;;;5061506;28;20533;-82
2022/01/20 13:11:37;;;;;;;14.90;2.17;;;8.10;99.90;;;;;;5062798;28;20455;-79
2022/01/20 13:14:04;;;;;;;10.30;2.00;;;7.60;99.90;;;;;;5062001;28;20448;-82
2022/01/20 13:16:32;;;;;;;7.70;2.10;;;7.20;99.90;;;;;;5064348;28;20491;-82
2022/01/20 13:19:02;;;;;;;8.47;2.70;;;7.20;99.90;;;;;;5064082;28;20455;-81
2022/01/20 13:21:40;;;;;;;10.50;2.63;;;7.00;99.90;;;;;;5065390;28;20466;-82
2022/01/20 13:24:10;;;;;;;10.93;2.00;;;6.80;99.90;;;;;;5063242;28;20500;-80
2022/01/20 13:26:50;;;;;;;11.00;2.50;;;7.00;99.90;;;;;;5064528;28;20461;-81
2022/01/20 13:29:17;;;;;;;10.50;2.30;;;7.30;99.90;;;;;;5062632;28;20476;-81
2022/01/20 13:31:45;;;;;;;11.73;2.40;;;7.20;99.90;;;;;;5062080;28;20455;-80
2022/01/20 13:34:13;;;;;;;9.57;1.97;;;7.40;99.90;;;;;;5058808;28;20460;-81
2022/01/20 13:36:43;;;;;;;10.47;2.27;;;7.60;99.90;;;;;;5061679;28;20470;-81
2022/01/20 13:39:11;;;;;;;5.40;1.73;;;7.70;99.90;;;;;;5061989;28;20876;-81
2022/01/20 13:41:38;;;;;;;14.73;3.20;;;7.80;99.90;;;;;;5062018;28;20450;-83
2022/01/20 13:47:06;;;;;;;5.07;2.03;;;8.40;99.90;;;;;;5061393;28;20479;-80
2022/01/20 13:49:33;;;;;;;13.07;2.43;;;7.80;99.90;;;;;;5061322;28;20506;-82
2022/01/20 13:52:05;;;;;;;6.80;1.67;;;7.10;99.90;;;;;;5059851;28;20492;-81
2022/01/20 13:54:41;;;;;;;6.70;2.27;;;6.80;99.90;;;;;;5061405;28;20456;-81
2022/01/20 13:57:09;;;;;;;10.17;3.00;;;6.40;99.90;;;;;;5061220;28;20485;-81
2022/01/20 13:59:47;;;;;;;8.73;2.23;;;5.60;99.90;;;;;;5060713;28;21014;-80
2022/01/20 14:02:14;;;;;;;8.70;2.70;;;5.10;99.90;;;;;;5060981;28;20969;-82